createdAt,value
2024-02-14T00:00:56.938Z,21.23
2024-02-14T00:03:25.143Z,21.58
2024-02-14T00:05:53.742Z,20.95
2024-02-14T00:08:22.431Z,24.92
2024-02-14T00:10:49.964Z,24.13
2024-02-14T00:13:19.625Z,26.35
2024-02-14T00:15:47.597Z,25.20
2024-02-14T00:18:17.824Z,26.10
2024-02-14T00:20:45.294Z,25.85
2024-02-14T00:23:12.746Z,37.38
2024-02-14T00:25:39.585Z,29.92
2024-02-14T00:28:07.262Z,31.70
2024-02-14T00:30:35.663Z,32.90
2024-02-14T00:33:03.360Z,35.45
2024-02-14T00:35:31.153Z,34.85
2024-02-14T00:37:58.527Z,28.58
2024-02-14T00:40:25.876Z,29.73
2024-02-14T00:42:52.761Z,27.23
2024-02-14T00:45:20.002Z,27.23
2024-02-14T00:47:47.330Z,28.48
2024-02-14T00:50:19.696Z,28.02
2024-02-14T00:52:46.833Z,27.97
2024-02-14T00:55:15.275Z,27.05
2024-02-14T00:57:42.072Z,24.85
2024-02-14T01:00:10.258Z,27.63
2024-02-14T01:02:37.215Z,27.92
2024-02-14T01:05:06.670Z,26.55
2024-02-14T01:07:34.095Z,24.92
2024-02-14T01:10:01.572Z,25.27
2024-02-14T01:12:30.857Z,27.20
2024-02-14T01:14:57.986Z,31.27
2024-02-14T01:17:26.254Z,29.35
2024-02-14T01:19:55.523Z,25.50
2024-02-14T01:22:23.003Z,28.10
2024-02-14T01:24:49.764Z,28.70
2024-02-14T01:27:18.166Z,33.45
2024-02-14T01:29:46.820Z,35.88
2024-02-14T01:32:13.739Z,35.80
2024-02-14T01:34:40.716Z,35.13
2024-02-14T01:37:11.144Z,35.55
2024-02-14T01:39:38.150Z,36.08
2024-02-14T01:42:08.004Z,38.30
2024-02-14T01:44:35.982Z,35.90
2024-02-14T01:47:03.423Z,36.53
2024-02-14T01:49:32.445Z,35.35
2024-02-14T01:52:04.064Z,29.98
2024-02-14T01:54:32.828Z,29.20
2024-02-14T01:57:02.541Z,29.42
2024-02-14T01:59:29.921Z,31.30
2024-02-14T02:01:59.418Z,30.55
2024-02-14T02:04:26.575Z,32.42
2024-02-14T02:06:57.876Z,34.90
2024-02-14T02:09:28.066Z,31.45
2024-02-14T02:11:55.337Z,33.80
2024-02-14T02:14:25.540Z,37.40
2024-02-14T02:16:53.410Z,37.58
2024-02-14T02:19:20.646Z,39.28
2024-02-14T02:21:48.286Z,47.63
2024-02-14T02:24:15.657Z,42.63
2024-02-14T02:26:42.992Z,46.88
2024-02-14T02:29:10.463Z,48.25
2024-02-14T02:31:39.341Z,44.72
2024-02-14T02:34:07.523Z,44.47
2024-02-14T02:36:37.258Z,44.70
2024-02-14T02:39:04.562Z,40.42
2024-02-14T02:41:34.441Z,41.03
2024-02-14T02:44:02.947Z,42.55
2024-02-14T02:46:30.957Z,40.33
2024-02-14T02:49:00.020Z,39.33
2024-02-14T02:51:29.066Z,39.95
2024-02-14T02:53:56.249Z,41.65
2024-02-14T02:56:28.555Z,42.72
2024-02-14T02:58:56.893Z,38.60
2024-02-14T03:01:26.236Z,39.60
2024-02-14T03:03:54.767Z,39.33
2024-02-14T03:06:25.357Z,40.22
2024-02-14T03:08:55.065Z,42.10
2024-02-14T03:11:23.759Z,39.95
2024-02-14T03:13:50.892Z,38.53
2024-02-14T03:16:18.672Z,36.35
2024-02-14T03:18:46.195Z,37.42
2024-02-14T03:21:13.754Z,36.63
2024-02-14T03:23:41.421Z,37.38
2024-02-14T03:26:10.237Z,38.38
2024-02-14T03:28:37.643Z,41.00
2024-02-14T03:31:05.237Z,39.25
2024-02-14T03:33:33.588Z,35.90
2024-02-14T03:36:01.021Z,37.33
2024-02-14T03:38:29.334Z,37.45
2024-02-14T03:40:56.588Z,37.83
2024-02-14T03:43:25.160Z,36.35
2024-02-14T03:45:53.415Z,37.05
2024-02-14T03:48:21.567Z,34.75
2024-02-14T03:50:49.591Z,36.05
2024-02-14T03:53:18.936Z,34.85
2024-02-14T03:55:47.350Z,34.47
2024-02-14T03:58:17.338Z,33.83
2024-02-14T04:00:45.775Z,36.45
2024-02-14T04:03:15.451Z,41.83
2024-02-14T04:05:42.916Z,41.17
2024-02-14T04:08:12.060Z,41.83
2024-02-14T04:10:41.217Z,36.65
2024-02-14T04:13:08.331Z,37.90
2024-02-14T04:15:35.594Z,34.28
2024-02-14T04:18:07.280Z,35.63
2024-02-14T04:20:37.517Z,37.88
2024-02-14T04:23:07.904Z,41.03
2024-02-14T04:25:35.237Z,41.72
2024-02-14T04:28:04.126Z,47.17
2024-02-14T04:30:32.373Z,40.03
2024-02-14T04:33:02.722Z,36.42
2024-02-14T04:35:30.170Z,34.53
2024-02-14T04:37:58.155Z,33.35
2024-02-14T04:40:25.021Z,32.67
2024-02-14T04:42:52.054Z,30.90
2024-02-14T04:45:20.057Z,29.50
2024-02-14T04:47:47.419Z,31.88
2024-02-14T04:50:15.239Z,32.35
2024-02-14T04:52:42.463Z,30.77
2024-02-14T04:55:13.892Z,30.75
2024-02-14T04:57:40.827Z,30.48
2024-02-14T05:00:10.556Z,31.02
2024-02-14T05:02:38.838Z,31.50
2024-02-14T05:05:07.079Z,31.92
2024-02-14T05:07:36.361Z,31.17
2024-02-14T05:10:09.098Z,30.77
2024-02-14T05:12:36.375Z,30.55
2024-02-14T05:15:05.878Z,30.65
2024-02-14T05:17:33.038Z,29.92
2024-02-14T05:20:00.973Z,31.75
2024-02-14T05:22:28.890Z,30.92
2024-02-14T05:24:56.228Z,29.42
2024-02-14T05:27:23.695Z,31.10
2024-02-14T05:29:50.600Z,30.23
2024-02-14T05:32:18.159Z,29.48
2024-02-14T05:34:45.547Z,35.80
2024-02-14T05:37:13.562Z,33.38
2024-02-14T05:39:41.112Z,45.45
2024-02-14T05:42:08.689Z,65.07
2024-02-14T05:44:35.882Z,75.45
2024-02-14T05:47:02.738Z,77.15
2024-02-14T05:49:31.920Z,73.05
2024-02-14T05:51:59.326Z,66.45
2024-02-14T05:54:26.922Z,57.60
2024-02-14T05:56:54.128Z,53.95
2024-02-14T05:59:21.005Z,50.47
2024-02-14T06:01:49.183Z,47.45
2024-02-14T06:04:19.753Z,46.40
2024-02-14T06:06:46.705Z,48.97
2024-02-14T06:09:15.114Z,46.30
2024-02-14T06:11:43.625Z,41.40
2024-02-14T06:14:15.687Z,42.80
2024-02-14T06:16:42.558Z,41.38
2024-02-14T06:19:10.955Z,38.83
2024-02-14T06:21:38.020Z,39.28
2024-02-14T06:24:05.308Z,46.03
2024-02-14T06:26:34.616Z,44.13
2024-02-14T06:29:01.950Z,50.10
2024-02-14T06:31:28.878Z,47.33
2024-02-14T06:33:58.068Z,54.70
2024-02-14T06:36:25.361Z,51.65
2024-02-14T06:38:52.990Z,50.13
2024-02-14T06:41:21.366Z,55.58
2024-02-14T06:43:50.538Z,49.15
2024-02-14T06:46:17.915Z,53.00
2024-02-14T06:48:45.589Z,53.58
2024-02-14T06:51:12.663Z,54.40
2024-02-14T06:53:42.147Z,59.63
2024-02-14T06:56:09.192Z,58.45
2024-02-14T06:58:36.319Z,52.75
2024-02-14T07:01:04.566Z,53.35
2024-02-14T07:03:31.501Z,53.40
2024-02-14T07:06:04.713Z,52.83
2024-02-14T07:11:00.792Z,54.22
2024-02-14T07:13:27.567Z,55.22
2024-02-14T07:15:56.643Z,57.88
2024-02-14T07:18:25.834Z,69.28
2024-02-14T07:20:53.599Z,63.00
2024-02-14T07:23:21.592Z,58.67
2024-02-14T07:25:50.121Z,51.85
2024-02-14T07:28:16.988Z,49.50
2024-02-14T07:30:45.143Z,47.05
2024-02-14T07:33:12.510Z,45.15
2024-02-14T07:35:40.061Z,46.40
2024-02-14T07:38:07.320Z,46.30
2024-02-14T07:40:34.759Z,43.70
2024-02-14T07:43:07.369Z,41.58
2024-02-14T07:45:34.759Z,44.47
2024-02-14T07:48:04.514Z,41.70
2024-02-14T07:50:34.113Z,41.58
2024-02-14T07:53:03.311Z,38.78
2024-02-14T07:55:31.350Z,39.72
2024-02-14T07:58:00.927Z,39.30
2024-02-14T08:00:28.341Z,38.65
2024-02-14T08:02:55.230Z,34.90
2024-02-14T08:05:22.295Z,37.05
2024-02-14T08:07:49.640Z,35.60
2024-02-14T08:10:18.052Z,36.08
2024-02-14T08:12:45.077Z,35.00
2024-02-14T08:15:11.973Z,34.45
2024-02-14T08:17:39.037Z,34.05
2024-02-14T08:20:11.654Z,34.75
2024-02-14T08:22:40.637Z,33.87
2024-02-14T08:25:08.291Z,32.35
2024-02-14T08:27:35.512Z,31.08
2024-02-14T08:30:02.914Z,31.98
2024-02-14T08:32:29.844Z,32.05
2024-02-14T08:34:56.813Z,31.80
2024-02-14T08:37:26.126Z,31.02
2024-02-14T08:39:53.161Z,31.15
2024-02-14T08:42:20.323Z,30.88
2024-02-14T08:44:47.590Z,30.42
2024-02-14T08:47:15.637Z,30.65
2024-02-14T08:49:43.443Z,27.95
2024-02-14T08:52:12.596Z,26.58
2024-02-14T08:54:41.981Z,24.42
2024-02-14T08:57:10.081Z,24.25
2024-02-14T08:59:37.047Z,22.85
2024-02-14T09:02:04.645Z,23.30
2024-02-14T09:04:40.467Z,22.85
2024-02-14T09:07:11.085Z,21.77
2024-02-14T09:09:39.070Z,21.73
2024-02-14T09:12:07.327Z,20.95
2024-02-14T09:14:34.644Z,19.80
2024-02-14T09:17:02.275Z,18.92
2024-02-14T09:19:31.512Z,18.70
2024-02-14T09:21:59.028Z,17.55
2024-02-14T09:24:26.399Z,16.52
2024-02-14T09:26:53.857Z,17.95
2024-02-14T09:29:23.447Z,17.23
2024-02-14T09:31:52.757Z,16.17
2024-02-14T09:34:21.789Z,15.00
2024-02-14T09:36:53.359Z,15.02
2024-02-14T09:39:21.555Z,15.35
2024-02-14T09:41:55.657Z,13.57
2024-02-14T09:44:25.012Z,14.57
2024-02-14T09:46:52.064Z,14.07
2024-02-14T09:49:20.871Z,14.40
2024-02-14T09:51:50.298Z,14.57
2024-02-14T09:54:19.450Z,14.02
2024-02-14T09:56:58.780Z,14.70
2024-02-14T09:59:26.418Z,13.93
2024-02-14T10:01:53.798Z,14.82
2024-02-14T10:04:26.820Z,13.70
2024-02-14T10:06:57.348Z,15.25
2024-02-14T10:09:26.941Z,14.85
2024-02-14T10:11:55.686Z,14.32
2024-02-14T10:14:24.800Z,14.10
2024-02-14T10:16:51.655Z,13.73
2024-02-14T10:19:19.974Z,12.82
2024-02-14T10:22:00.474Z,13.57
2024-02-14T10:24:28.844Z,13.52
2024-02-14T10:26:59.172Z,14.73
2024-02-14T10:29:27.157Z,14.05
2024-02-14T10:31:54.961Z,12.95
2024-02-14T10:34:26.777Z,12.52
2024-02-14T10:37:01.733Z,12.73
2024-02-14T10:39:32.639Z,12.70
2024-02-14T10:42:01.399Z,11.10
2024-02-14T10:44:28.632Z,11.73
2024-02-14T10:46:58.268Z,10.70
2024-02-14T10:49:29.940Z,10.05
2024-02-14T10:52:01.974Z,10.52
2024-02-14T10:54:29.998Z,9.48
2024-02-14T10:56:59.785Z,9.38
2024-02-14T10:59:28.853Z,10.00
2024-02-14T11:01:58.513Z,9.75
2024-02-14T11:04:32.196Z,7.80
2024-02-14T11:09:39.480Z,9.10
2024-02-14T11:12:11.917Z,8.20
2024-02-14T11:14:42.242Z,7.18
2024-02-14T11:17:14.349Z,6.72
2024-02-14T11:22:21.060Z,6.85
2024-02-14T11:24:48.409Z,6.60
2024-02-14T11:27:29.804Z,7.13
2024-02-14T11:30:02.633Z,7.35
2024-02-14T11:32:32.233Z,6.22
2024-02-14T11:35:00.240Z,5.90
2024-02-14T11:37:32.856Z,4.20
2024-02-14T11:40:00.496Z,4.05
2024-02-14T11:42:28.717Z,4.88
2024-02-14T11:44:58.730Z,3.97
2024-02-14T11:47:26.328Z,3.75
2024-02-14T11:49:53.996Z,3.58
2024-02-14T11:52:20.903Z,3.70
2024-02-14T11:54:51.560Z,3.22
2024-02-14T11:57:22.710Z,3.40
2024-02-14T12:02:22.790Z,3.25
2024-02-14T12:04:55.385Z,2.95
2024-02-14T12:07:23.732Z,3.00
2024-02-14T12:09:56.630Z,2.88
2024-02-14T12:12:24.407Z,4.10
2024-02-14T12:14:54.325Z,3.25
2024-02-14T12:19:53.392Z,3.22
2024-02-14T12:22:23.053Z,3.03
2024-02-14T12:24:50.895Z,2.90
2024-02-14T12:27:21.341Z,2.90
2024-02-14T12:29:49.945Z,2.72
2024-02-14T12:32:18.795Z,3.13
2024-02-14T12:34:45.981Z,3.60
2024-02-14T12:37:13.375Z,3.67
2024-02-14T12:39:41.924Z,3.53
2024-02-14T12:42:09.687Z,3.72
2024-02-14T12:44:37.865Z,3.85
2024-02-14T12:47:06.221Z,4.00
2024-02-14T12:49:36.321Z,4.25
2024-02-14T12:52:06.229Z,5.63
2024-02-14T12:54:33.748Z,5.40
2024-02-14T12:57:01.327Z,4.93
2024-02-14T12:59:28.690Z,4.68
2024-02-14T13:01:57.194Z,4.55
2024-02-14T13:04:24.356Z,5.07
2024-02-14T13:06:51.655Z,4.60
2024-02-14T13:09:19.103Z,5.60
2024-02-14T13:11:46.636Z,5.03
2024-02-14T13:14:14.084Z,5.22
2024-02-14T13:16:41.938Z,5.15
2024-02-14T13:19:09.441Z,4.82
2024-02-14T13:21:39.386Z,4.53
2024-02-14T13:24:06.969Z,4.22
2024-02-14T13:26:35.587Z,4.88
2024-02-14T13:29:02.801Z,4.88
2024-02-14T13:31:30.149Z,4.55
2024-02-14T13:33:58.309Z,4.70
2024-02-14T13:36:25.638Z,4.53
2024-02-14T13:38:53.556Z,3.92
2024-02-14T13:41:21.669Z,3.97
2024-02-14T13:43:49.205Z,4.32
2024-02-14T13:46:16.442Z,3.97
2024-02-14T13:48:45.514Z,4.00
2024-02-14T13:51:13.123Z,3.45
2024-02-14T13:53:40.461Z,3.63
2024-02-14T13:56:08.206Z,3.63
2024-02-14T13:58:36.488Z,3.45
2024-02-14T14:01:08.448Z,3.33
2024-02-14T14:03:37.924Z,3.38
2024-02-14T14:06:09.421Z,3.20
2024-02-14T14:08:37.538Z,3.00
2024-02-14T14:11:05.113Z,5.13
2024-02-14T14:13:34.799Z,4.80
2024-02-14T14:16:02.749Z,4.80
2024-02-14T14:18:30.874Z,4.68
2024-02-14T14:20:57.958Z,4.20
2024-02-14T14:23:26.398Z,4.57
2024-02-14T14:25:53.710Z,4.65
2024-02-14T14:28:25.840Z,4.63
2024-02-14T14:33:22.625Z,5.40
2024-02-14T14:35:56.259Z,5.85
2024-02-14T14:38:27.712Z,4.35
2024-02-14T14:40:57.098Z,5.20
2024-02-14T14:43:25.044Z,5.20
2024-02-14T14:45:54.462Z,4.55
2024-02-14T14:48:24.148Z,5.10
2024-02-14T14:50:51.410Z,4.53
2024-02-14T14:53:21.358Z,4.80
2024-02-14T14:55:57.605Z,6.35
2024-02-14T14:58:28.842Z,5.85
2024-02-14T15:01:00.224Z,6.15
2024-02-14T15:03:28.097Z,5.40
2024-02-14T15:05:55.623Z,4.72
2024-02-14T15:08:27.049Z,5.40
2024-02-14T15:10:56.742Z,5.00
2024-02-14T15:13:25.412Z,4.90
2024-02-14T15:15:54.322Z,5.28
2024-02-14T15:18:21.654Z,5.72
2024-02-14T15:20:48.928Z,5.80
2024-02-14T15:23:16.006Z,6.13
2024-02-14T15:25:42.969Z,6.97
2024-02-14T15:28:15.506Z,6.47
2024-02-14T15:30:59.908Z,5.93
2024-02-14T15:33:30.438Z,6.38
2024-02-14T15:36:00.774Z,6.30
2024-02-14T15:38:28.233Z,8.40
2024-02-14T15:41:02.626Z,10.02
2024-02-14T15:43:30.447Z,9.82
2024-02-14T15:45:58.750Z,13.80
2024-02-14T15:48:28.876Z,13.20
2024-02-14T15:50:58.548Z,8.80
2024-02-14T15:53:28.138Z,9.50
2024-02-14T15:55:56.576Z,11.10
2024-02-14T15:58:23.515Z,11.63
2024-02-14T16:00:50.421Z,10.45
2024-02-14T16:03:17.277Z,10.75
2024-02-14T16:05:47.424Z,9.45
2024-02-14T16:08:17.827Z,8.10
2024-02-14T16:10:45.784Z,8.45
2024-02-14T16:13:13.637Z,8.68
2024-02-14T16:15:40.485Z,8.35
2024-02-14T16:18:07.515Z,8.38
2024-02-14T16:20:34.426Z,8.10
2024-02-14T16:23:01.945Z,7.47
2024-02-14T16:25:31.960Z,6.57
2024-02-14T16:28:00.410Z,6.50
2024-02-14T16:30:27.422Z,6.30
2024-02-14T16:32:54.769Z,7.47
2024-02-14T16:35:22.881Z,6.53
2024-02-14T16:37:49.901Z,7.60
2024-02-14T16:40:16.802Z,7.43
2024-02-14T16:42:44.201Z,6.93
2024-02-14T16:45:11.480Z,6.88
2024-02-14T16:47:42.477Z,7.53
2024-02-14T16:50:09.643Z,8.27
2024-02-14T16:52:36.952Z,8.20
2024-02-14T16:55:04.790Z,8.60
2024-02-14T16:57:32.914Z,8.20
2024-02-14T16:59:59.744Z,8.63
2024-02-14T17:02:26.827Z,8.60
2024-02-14T17:04:54.035Z,8.80
2024-02-14T17:07:20.963Z,8.98
2024-02-14T17:09:48.384Z,8.95
2024-02-14T17:12:17.236Z,9.57
2024-02-14T17:14:47.989Z,9.75
2024-02-14T17:17:15.446Z,10.05
2024-02-14T17:19:42.475Z,10.30
2024-02-14T17:22:17.868Z,9.88
2024-02-14T17:24:56.945Z,10.30
2024-02-14T17:27:24.977Z,10.20
2024-02-14T17:29:53.357Z,9.88
2024-02-14T17:32:31.892Z,9.60
2024-02-14T17:35:04.914Z,9.98
2024-02-14T17:37:34.983Z,10.05
2024-02-14T17:40:03.037Z,9.90
2024-02-14T17:42:30.431Z,9.90
2024-02-14T17:44:58.774Z,10.27
2024-02-14T17:47:32.276Z,10.18
2024-02-14T17:49:59.823Z,10.27
2024-02-14T17:52:26.915Z,10.30
2024-02-14T17:54:56.155Z,13.25
2024-02-14T17:57:27.332Z,10.48
2024-02-14T17:59:55.459Z,10.52
2024-02-14T18:02:23.593Z,10.85
2024-02-14T18:04:52.162Z,10.75
2024-02-14T18:07:19.635Z,10.55
2024-02-14T18:09:46.626Z,11.25
2024-02-14T18:12:14.770Z,10.45
2024-02-14T18:14:42.009Z,11.07
2024-02-14T18:17:09.931Z,11.55
2024-02-14T18:19:37.142Z,10.77
2024-02-14T18:22:04.482Z,11.30
2024-02-14T18:24:32.459Z,10.40
2024-02-14T18:27:01.526Z,11.65
2024-02-14T18:29:30.389Z,15.77
2024-02-14T18:31:57.539Z,27.70
2024-02-14T18:34:24.814Z,30.85
2024-02-14T18:36:55.107Z,28.58
2024-02-14T18:39:22.848Z,31.90
2024-02-14T18:41:50.011Z,35.03
2024-02-14T18:44:16.890Z,33.70
2024-02-14T18:46:47.399Z,39.50
2024-02-14T18:49:17.493Z,25.05
2024-02-14T18:51:44.980Z,28.92
2024-02-14T18:54:12.209Z,26.50
2024-02-14T18:56:42.083Z,22.50
2024-02-14T18:59:10.412Z,21.70
2024-02-14T19:01:39.495Z,20.80
2024-02-14T19:04:07.285Z,16.88
2024-02-14T19:06:36.263Z,15.73
2024-02-14T19:09:06.000Z,18.65
2024-02-14T19:11:33.208Z,17.05
2024-02-14T19:14:00.393Z,16.30
2024-02-14T19:16:29.374Z,15.65
2024-02-14T19:18:58.151Z,16.13
2024-02-14T19:21:25.877Z,21.67
2024-02-14T19:23:53.254Z,21.65
2024-02-14T19:26:22.643Z,16.25
2024-02-14T19:28:51.090Z,12.20
2024-02-14T19:31:18.514Z,12.25
2024-02-14T19:33:47.432Z,16.77
2024-02-14T19:36:15.055Z,18.25
2024-02-14T19:38:41.988Z,18.48
2024-02-14T19:41:09.613Z,21.25
2024-02-14T19:43:40.105Z,20.00
2024-02-14T19:46:12.110Z,17.42
2024-02-14T19:48:39.684Z,14.10
2024-02-14T19:51:07.333Z,12.77
2024-02-14T19:53:36.332Z,11.70
2024-02-14T19:56:04.924Z,14.43
2024-02-14T19:58:33.968Z,13.90
2024-02-14T20:01:00.873Z,16.65
2024-02-14T20:03:28.406Z,23.33
2024-02-14T20:05:55.696Z,92.93
2024-02-14T20:08:26.567Z,24.08
2024-02-14T20:10:56.994Z,26.42
2024-02-14T20:13:24.791Z,21.83
2024-02-14T20:15:53.092Z,23.90
2024-02-14T20:18:20.647Z,21.77
2024-02-14T20:20:52.347Z,20.77
2024-02-14T20:23:19.920Z,17.15
2024-02-14T20:25:48.627Z,15.93
2024-02-14T20:28:15.931Z,13.50
2024-02-14T20:30:43.501Z,14.85
2024-02-14T20:33:12.386Z,16.73
2024-02-14T20:35:39.705Z,17.58
2024-02-14T20:38:11.037Z,19.40
2024-02-14T20:40:39.311Z,17.05
2024-02-14T20:43:07.224Z,13.80
2024-02-14T20:45:37.555Z,14.77
2024-02-14T20:48:05.943Z,16.40
2024-02-14T20:50:33.183Z,16.08
2024-02-14T20:53:00.663Z,17.95
2024-02-14T20:55:27.609Z,17.05
2024-02-14T20:57:55.490Z,17.75
2024-02-14T21:00:24.308Z,18.00
2024-02-14T21:02:51.676Z,18.88
2024-02-14T21:05:18.954Z,18.77
2024-02-14T21:07:46.789Z,20.13
2024-02-14T21:10:17.328Z,19.05
2024-02-14T21:12:44.783Z,19.42
2024-02-14T21:15:11.989Z,18.75
2024-02-14T21:17:39.406Z,17.25
2024-02-14T21:20:11.044Z,16.40
2024-02-14T21:22:38.866Z,19.52
2024-02-14T21:25:06.663Z,17.88
2024-02-14T21:27:36.372Z,21.60
2024-02-14T21:30:03.973Z,23.85
2024-02-14T21:32:33.263Z,22.73
2024-02-14T21:35:01.759Z,24.85
2024-02-14T21:37:28.533Z,24.10
2024-02-14T21:39:55.518Z,26.20
2024-02-14T21:42:22.464Z,24.52
2024-02-14T21:44:49.705Z,24.52
2024-02-14T21:47:17.352Z,24.05
2024-02-14T21:49:46.723Z,26.65
2024-02-14T21:52:13.881Z,24.70
2024-02-14T21:54:40.945Z,24.60
2024-02-14T21:57:08.480Z,23.63
2024-02-14T21:59:35.719Z,23.30
2024-02-14T22:02:06.942Z,22.00
2024-02-14T22:04:34.809Z,23.17
2024-02-14T22:07:03.102Z,22.65
2024-02-14T22:09:30.904Z,22.67
2024-02-14T22:11:59.526Z,21.77
2024-02-14T22:14:27.618Z,24.08
2024-02-14T22:16:59.460Z,23.00
2024-02-14T22:19:26.643Z,23.00
2024-02-14T22:21:55.986Z,19.85
2024-02-14T22:24:27.572Z,20.65
2024-02-14T22:26:55.801Z,20.38
2024-02-14T22:29:24.470Z,20.30
2024-02-14T22:31:53.818Z,20.92
2024-02-14T22:34:22.169Z,18.75
2024-02-14T22:36:49.600Z,21.08
2024-02-14T22:39:16.617Z,20.00
2024-02-14T22:41:44.285Z,18.83
2024-02-14T22:44:11.587Z,19.27
2024-02-14T22:46:40.213Z,18.77
2024-02-14T22:49:07.641Z,18.30
2024-02-14T22:51:38.621Z,18.05
2024-02-14T22:54:06.099Z,17.55
2024-02-14T22:56:33.398Z,19.02
2024-02-14T22:59:00.745Z,19.25
2024-02-14T23:01:28.091Z,19.25
2024-02-14T23:03:55.338Z,20.80
2024-02-14T23:06:23.041Z,19.35
2024-02-14T23:08:50.274Z,20.58
2024-02-14T23:11:19.250Z,20.40
2024-02-14T23:13:46.841Z,20.17
2024-02-14T23:16:14.089Z,19.33
2024-02-14T23:18:41.135Z,17.90
2024-02-14T23:21:08.654Z,17.75
2024-02-14T23:23:36.028Z,17.80
2024-02-14T23:26:03.570Z,18.60
2024-02-14T23:28:31.913Z,18.83
2024-02-14T23:30:58.852Z,17.92
2024-02-14T23:33:26.471Z,18.70
2024-02-14T23:35:53.817Z,18.70
2024-02-14T23:38:21.343Z,18.58
2024-02-14T23:40:50.602Z,20.13
2024-02-14T23:43:18.413Z,20.50
2024-02-14T23:45:45.948Z,23.60
2024-02-14T23:48:13.232Z,20.65
2024-02-14T23:50:41.837Z,21.73
2024-02-14T23:53:12.062Z,20.05
2024-02-14T23:55:41.333Z,19.80
2024-02-14T23:58:11.254Z,18.25
